createdAt,value
2023-04-09T00:00:45.152Z,57.00
2023-04-09T00:02:48.462Z,56.38
2023-04-09T00:04:52.025Z,58.15
2023-04-09T00:06:55.440Z,56.78
2023-04-09T00:08:58.717Z,56.65
2023-04-09T00:11:01.965Z,59.40
2023-04-09T00:13:05.388Z,57.05
2023-04-09T00:15:15.053Z,57.67
2023-04-09T00:17:25.760Z,58.55
2023-04-09T00:19:29.082Z,60.40
2023-04-09T00:21:32.314Z,57.28
2023-04-09T00:23:35.991Z,59.53
2023-04-09T00:25:39.271Z,56.53
2023-04-09T00:27:42.526Z,59.03
2023-04-09T00:29:45.855Z,58.88
2023-04-09T00:31:49.135Z,58.97
2023-04-09T00:33:53.826Z,57.78
2023-04-09T00:35:57.119Z,59.45
2023-04-09T00:38:00.405Z,59.22
2023-04-09T00:40:04.043Z,57.53
2023-04-09T00:42:07.295Z,58.25
2023-04-09T00:44:10.613Z,59.53
2023-04-09T00:46:14.014Z,60.13
2023-04-09T00:48:18.380Z,58.58
2023-04-09T00:50:23.393Z,59.13
2023-04-09T00:52:27.160Z,61.20
2023-04-09T00:54:30.658Z,58.58
2023-04-09T00:56:34.766Z,59.38
2023-04-09T00:58:38.204Z,61.20
2023-04-09T01:00:41.511Z,59.13
2023-04-09T01:02:45.637Z,58.92
2023-04-09T01:04:49.756Z,60.25
2023-04-09T01:07:00.219Z,59.17
2023-04-09T01:09:08.249Z,58.80
2023-04-09T01:11:20.177Z,59.55
2023-04-09T01:13:31.670Z,59.60
2023-04-09T01:15:40.070Z,60.78
2023-04-09T01:17:49.771Z,60.22
2023-04-09T01:20:03.434Z,61.17
2023-04-09T01:22:22.128Z,61.95
2023-04-09T01:24:38.202Z,59.13
2023-04-09T01:26:49.713Z,62.45
2023-04-09T01:28:55.840Z,59.72
2023-04-09T01:31:03.143Z,59.70
2023-04-09T01:33:07.770Z,60.78
2023-04-09T01:35:11.674Z,59.55
2023-04-09T01:37:16.828Z,62.03
2023-04-09T01:39:20.833Z,64.97
2023-04-09T01:41:26.184Z,69.95
2023-04-09T01:43:29.822Z,65.25
2023-04-09T01:45:34.817Z,73.90
2023-04-09T01:47:39.356Z,70.78
2023-04-09T01:49:43.108Z,74.68
2023-04-09T01:51:47.056Z,76.75
2023-04-09T01:53:50.495Z,75.25
2023-04-09T01:55:53.743Z,77.85
2023-04-09T01:57:57.025Z,76.85
2023-04-09T02:00:00.644Z,78.93
2023-04-09T02:02:11.139Z,79.80
2023-04-09T02:04:24.019Z,80.43
2023-04-09T02:06:39.883Z,73.57
2023-04-09T02:08:45.858Z,70.45
2023-04-09T02:10:55.431Z,69.90
2023-04-09T02:13:01.093Z,63.75
2023-04-09T02:15:05.367Z,62.63
2023-04-09T02:17:09.987Z,58.03
2023-04-09T02:19:13.309Z,65.47
2023-04-09T02:21:16.604Z,60.90
2023-04-09T02:23:20.460Z,61.05
2023-04-09T02:25:24.161Z,61.28
2023-04-09T02:27:27.507Z,62.03
2023-04-09T02:29:30.780Z,58.60
2023-04-09T02:31:34.056Z,58.53
2023-04-09T02:33:38.988Z,56.75
2023-04-09T02:35:42.345Z,54.45
2023-04-09T02:37:45.723Z,54.80
2023-04-09T02:39:49.108Z,57.83
2023-04-09T02:41:52.445Z,55.33
2023-04-09T02:43:55.644Z,58.45
2023-04-09T02:45:59.352Z,64.95
2023-04-09T02:48:03.189Z,63.92
2023-04-09T02:50:12.554Z,63.58
2023-04-09T02:52:24.442Z,62.25
2023-04-09T02:54:27.814Z,61.30
2023-04-09T02:56:31.045Z,62.10
2023-04-09T02:58:34.425Z,58.70
2023-04-09T03:00:37.860Z,59.53
2023-04-09T03:02:41.273Z,58.25
2023-04-09T03:04:44.656Z,57.35
2023-04-09T03:06:49.290Z,57.33
2023-04-09T03:08:52.760Z,57.78
2023-04-09T03:10:56.363Z,57.25
2023-04-09T03:12:59.687Z,56.03
2023-04-09T03:15:02.932Z,57.53
2023-04-09T03:17:06.309Z,57.10
2023-04-09T03:19:09.561Z,58.92
2023-04-09T03:21:14.973Z,58.67
2023-04-09T03:23:25.053Z,58.08
2023-04-09T03:25:28.618Z,59.33
2023-04-09T03:27:33.982Z,58.95
2023-04-09T03:29:38.566Z,58.45
2023-04-09T03:31:43.316Z,59.17
2023-04-09T03:33:46.733Z,56.20
2023-04-09T03:35:50.476Z,59.85
2023-04-09T03:37:59.297Z,56.78
2023-04-09T03:40:04.460Z,51.95
2023-04-09T03:42:08.369Z,52.28
2023-04-09T03:44:20.141Z,53.53
2023-04-09T03:46:41.145Z,54.03
2023-04-09T03:48:46.329Z,52.15
2023-04-09T03:50:50.156Z,52.90
2023-04-09T03:53:00.963Z,52.58
2023-04-09T03:55:06.992Z,50.92
2023-04-09T03:57:10.584Z,51.17
2023-04-09T03:59:16.504Z,51.30
2023-04-09T04:01:23.216Z,51.53
2023-04-09T04:03:35.745Z,48.72
2023-04-09T04:06:05.573Z,50.10
2023-04-09T04:08:19.914Z,51.65
2023-04-09T04:10:25.422Z,51.00
2023-04-09T04:12:28.925Z,50.03
2023-04-09T04:14:55.356Z,50.63
2023-04-09T04:17:08.749Z,48.80
2023-04-09T04:19:15.084Z,51.17
2023-04-09T04:21:22.972Z,52.95
2023-04-09T04:23:35.435Z,51.80
2023-04-09T04:25:54.265Z,50.20
2023-04-09T04:28:04.807Z,52.28
2023-04-09T04:30:14.801Z,52.35
2023-04-09T04:32:39.973Z,50.58
2023-04-09T04:34:50.218Z,51.78
2023-04-09T04:37:00.857Z,51.83
2023-04-09T04:39:07.630Z,52.40
2023-04-09T04:41:24.506Z,52.72
2023-04-09T04:43:34.754Z,50.83
2023-04-09T04:45:38.055Z,53.67
2023-04-09T04:47:46.475Z,52.15
2023-04-09T04:49:50.625Z,53.83
2023-04-09T04:51:54.112Z,53.35
2023-04-09T04:53:57.406Z,53.28
2023-04-09T04:56:00.954Z,54.50
2023-04-09T04:58:05.591Z,52.38
2023-04-09T05:00:18.903Z,52.17
2023-04-09T05:02:23.306Z,51.85
2023-04-09T05:04:50.983Z,52.67
2023-04-09T05:06:56.386Z,51.45
2023-04-09T05:09:01.624Z,51.78
2023-04-09T05:11:15.166Z,51.30
2023-04-09T05:13:21.339Z,52.38
2023-04-09T05:15:24.867Z,51.22
2023-04-09T05:17:28.140Z,52.70
2023-04-09T05:19:31.810Z,54.28
2023-04-09T05:21:38.587Z,53.90
2023-04-09T05:23:42.803Z,53.75
2023-04-09T05:25:46.206Z,55.20
2023-04-09T05:28:12.580Z,54.13
2023-04-09T05:30:18.710Z,53.00
2023-04-09T05:32:22.868Z,50.90
2023-04-09T05:34:27.116Z,49.80
2023-04-09T05:36:32.892Z,50.92
2023-04-09T05:38:37.219Z,49.90
2023-04-09T05:40:40.544Z,50.22
2023-04-09T05:42:48.292Z,48.70
2023-04-09T05:44:59.966Z,49.33
2023-04-09T05:47:05.066Z,49.88
2023-04-09T05:49:20.174Z,49.85
2023-04-09T05:51:27.431Z,50.55
2023-04-09T05:53:32.790Z,51.05
2023-04-09T05:55:36.068Z,50.90
2023-04-09T05:57:39.428Z,51.88
2023-04-09T05:59:43.163Z,53.95
2023-04-09T06:01:46.491Z,58.65
2023-04-09T06:03:51.844Z,56.63
2023-04-09T06:05:56.078Z,56.22
2023-04-09T06:07:59.392Z,57.50
2023-04-09T06:10:02.906Z,59.63
2023-04-09T06:12:06.187Z,57.38
2023-04-09T06:14:12.246Z,59.72
2023-04-09T06:16:16.217Z,56.40
2023-04-09T06:18:19.509Z,56.38
2023-04-09T06:20:24.161Z,57.15
2023-04-09T06:22:27.477Z,57.03
2023-04-09T06:24:32.657Z,55.85
2023-04-09T06:26:35.925Z,53.42
2023-04-09T06:28:39.198Z,53.28
2023-04-09T06:30:42.776Z,52.40
2023-04-09T06:32:54.653Z,54.70
2023-04-09T06:34:58.473Z,55.55
2023-04-09T06:37:03.758Z,52.40
2023-04-09T06:39:07.247Z,55.05
2023-04-09T06:41:12.790Z,52.08
2023-04-09T06:43:16.343Z,50.63
2023-04-09T06:45:25.919Z,51.03
2023-04-09T06:47:29.616Z,49.50
2023-04-09T06:49:32.969Z,48.85
2023-04-09T06:51:36.554Z,51.90
2023-04-09T06:53:41.320Z,51.20
2023-04-09T06:55:44.772Z,50.97
2023-04-09T06:57:48.286Z,50.47
2023-04-09T06:59:51.871Z,48.83
2023-04-09T07:01:55.327Z,48.00
2023-04-09T07:03:58.957Z,50.28
2023-04-09T07:06:02.350Z,49.30
2023-04-09T07:08:05.851Z,47.65
2023-04-09T07:10:11.067Z,48.80
2023-04-09T07:12:14.318Z,46.95
2023-04-09T07:14:17.717Z,48.65
2023-04-09T07:16:21.121Z,47.33
2023-04-09T07:18:24.439Z,47.17
2023-04-09T07:20:27.601Z,47.30
2023-04-09T07:22:31.565Z,46.90
2023-04-09T07:24:34.845Z,46.42
2023-04-09T07:26:39.427Z,47.25
2023-04-09T07:28:42.625Z,43.90
2023-04-09T07:30:47.088Z,43.75
2023-04-09T07:32:50.850Z,43.17
2023-04-09T07:34:54.544Z,40.30
2023-04-09T07:36:57.752Z,40.45
2023-04-09T07:39:00.943Z,37.78
2023-04-09T07:41:04.224Z,39.00
2023-04-09T07:43:08.848Z,41.47
2023-04-09T07:45:12.098Z,39.50
2023-04-09T07:47:15.588Z,37.40
2023-04-09T07:49:18.858Z,35.83
2023-04-09T07:51:22.231Z,37.25
2023-04-09T07:53:25.581Z,35.22
2023-04-09T07:55:28.852Z,36.33
2023-04-09T07:57:33.332Z,37.67
2023-04-09T07:59:38.145Z,37.97
2023-04-09T08:01:41.495Z,34.47
2023-04-09T08:03:44.974Z,36.55
2023-04-09T08:05:48.289Z,35.80
2023-04-09T08:07:52.618Z,35.28
2023-04-09T08:09:56.159Z,29.08
2023-04-09T08:11:59.366Z,29.27
2023-04-09T08:14:04.627Z,24.77
2023-04-09T08:16:09.470Z,25.55
2023-04-09T08:18:13.013Z,23.23
2023-04-09T08:20:17.130Z,22.73
2023-04-09T08:22:20.559Z,23.02
2023-04-09T08:24:23.834Z,23.63
2023-04-09T08:26:27.049Z,24.75
2023-04-09T08:28:30.338Z,21.88
2023-04-09T08:30:34.351Z,21.42
2023-04-09T08:32:39.141Z,22.52
2023-04-09T08:34:42.548Z,20.48
2023-04-09T08:36:47.329Z,18.10
2023-04-09T08:38:50.674Z,18.42
2023-04-09T08:40:54.142Z,20.83
2023-04-09T08:42:58.280Z,21.45
2023-04-09T08:45:05.202Z,22.20
2023-04-09T08:47:11.655Z,21.38
2023-04-09T08:49:16.380Z,18.48
2023-04-09T08:51:21.356Z,21.38
2023-04-09T08:53:25.700Z,20.88
2023-04-09T08:55:29.039Z,20.08
2023-04-09T08:57:37.999Z,20.20
2023-04-09T08:59:41.301Z,16.92
2023-04-09T09:01:44.699Z,18.85
2023-04-09T09:03:59.542Z,18.52
2023-04-09T09:06:04.299Z,18.13
2023-04-09T09:08:09.047Z,17.25
2023-04-09T09:10:12.342Z,17.67
2023-04-09T09:12:40.487Z,18.35
2023-04-09T09:14:43.814Z,18.02
2023-04-09T09:17:05.412Z,15.70
2023-04-09T09:19:08.944Z,16.98
2023-04-09T09:21:15.682Z,16.02
2023-04-09T09:23:36.544Z,16.90
2023-04-09T09:25:41.229Z,20.00
2023-04-09T09:27:49.189Z,19.17
2023-04-09T09:29:52.603Z,20.00
2023-04-09T09:31:57.371Z,19.52
2023-04-09T09:34:11.319Z,24.05
2023-04-09T09:36:17.120Z,25.75
2023-04-09T09:38:20.732Z,28.00
2023-04-09T09:40:30.462Z,28.85
2023-04-09T09:42:39.608Z,29.30
2023-04-09T09:44:48.202Z,30.77
2023-04-09T09:46:53.435Z,31.23
2023-04-09T09:49:01.677Z,32.65
2023-04-09T09:51:11.943Z,34.92
2023-04-09T09:53:24.593Z,36.35
2023-04-09T09:55:32.628Z,35.97
2023-04-09T09:57:42.383Z,36.92
2023-04-09T10:00:03.276Z,36.78
2023-04-09T10:02:20.241Z,36.65
2023-04-09T10:04:29.813Z,37.53
2023-04-09T10:06:34.752Z,38.65
2023-04-09T10:08:43.573Z,37.38
2023-04-09T10:10:49.054Z,38.38
2023-04-09T10:12:53.318Z,37.55
2023-04-09T10:14:56.977Z,39.67
2023-04-09T10:17:01.067Z,40.92
2023-04-09T10:19:04.671Z,38.55
2023-04-09T10:21:13.849Z,39.92
2023-04-09T10:23:37.581Z,37.30
2023-04-09T10:25:43.073Z,33.88
2023-04-09T10:27:49.356Z,33.17
2023-04-09T10:29:53.133Z,31.90
2023-04-09T10:32:05.747Z,32.95
2023-04-09T10:34:10.871Z,30.00
2023-04-09T10:36:14.518Z,28.92
2023-04-09T10:38:21.190Z,28.52
2023-04-09T10:40:25.804Z,28.55
2023-04-09T10:42:36.595Z,29.33
2023-04-09T10:44:43.047Z,29.75
2023-04-09T10:46:47.133Z,28.67
2023-04-09T10:48:50.887Z,27.20
2023-04-09T10:50:54.503Z,27.15
2023-04-09T10:53:00.329Z,26.40
2023-04-09T10:55:03.644Z,26.15
2023-04-09T10:57:18.173Z,27.15
2023-04-09T10:59:23.144Z,27.02
2023-04-09T11:01:27.457Z,27.35
2023-04-09T11:03:31.511Z,27.50
2023-04-09T11:05:38.129Z,26.63
2023-04-09T11:07:45.120Z,27.15
2023-04-09T11:09:48.947Z,26.90
2023-04-09T11:12:55.011Z,26.23
2023-04-09T11:15:25.773Z,26.17
2023-04-09T11:17:29.450Z,25.23
2023-04-09T11:19:35.406Z,27.65
2023-04-09T11:21:38.713Z,24.50
2023-04-09T11:23:43.129Z,26.42
2023-04-09T11:25:50.865Z,25.95
2023-04-09T11:27:54.716Z,25.67
2023-04-09T11:29:58.321Z,25.40
2023-04-09T11:32:05.242Z,25.67
2023-04-09T11:34:12.254Z,24.88
2023-04-09T11:36:16.540Z,25.02
2023-04-09T11:38:19.829Z,25.33
2023-04-09T11:40:25.728Z,27.17
2023-04-09T11:42:32.446Z,26.92
2023-04-09T11:44:35.824Z,26.42
2023-04-09T11:46:40.197Z,28.23
2023-04-09T11:48:44.915Z,31.73
2023-04-09T11:50:48.527Z,32.10
2023-04-09T11:52:52.540Z,30.95
2023-04-09T11:54:55.932Z,30.80
2023-04-09T11:57:00.498Z,32.00
2023-04-09T11:59:04.440Z,33.70
2023-04-09T12:01:07.702Z,33.65
2023-04-09T12:03:12.592Z,31.75
2023-04-09T12:05:26.064Z,31.17
2023-04-09T12:07:33.985Z,30.63
2023-04-09T12:09:48.555Z,28.20
2023-04-09T12:11:52.355Z,26.52
2023-04-09T12:14:00.618Z,27.52
2023-04-09T12:16:07.643Z,27.08
2023-04-09T12:18:12.294Z,28.65
2023-04-09T12:20:15.801Z,29.05
2023-04-09T12:22:21.015Z,30.20
2023-04-09T12:24:25.617Z,28.08
2023-04-09T12:26:28.940Z,28.48
2023-04-09T12:28:32.154Z,29.63
2023-04-09T12:30:36.296Z,28.90
2023-04-09T12:32:40.008Z,31.95
2023-04-09T12:34:43.417Z,32.45
2023-04-09T12:36:46.890Z,32.53
2023-04-09T12:38:51.839Z,31.83
2023-04-09T12:40:55.473Z,31.70
2023-04-09T12:42:58.745Z,30.58
2023-04-09T12:45:02.237Z,31.88
2023-04-09T12:47:05.865Z,30.70
2023-04-09T12:49:09.300Z,21.90
2023-04-09T12:51:12.765Z,23.40
2023-04-09T12:53:16.165Z,29.23
2023-04-09T12:55:23.192Z,30.35
2023-04-09T12:57:26.472Z,26.80
2023-04-09T12:59:29.729Z,24.17
2023-04-09T13:01:33.280Z,25.13
2023-04-09T13:03:36.989Z,23.85
2023-04-09T13:05:40.444Z,24.27
2023-04-09T13:07:43.939Z,24.42
2023-04-09T13:09:48.128Z,24.05
2023-04-09T13:11:52.824Z,27.38
2023-04-09T13:13:56.206Z,28.08
2023-04-09T13:15:59.554Z,27.75
2023-04-09T13:18:03.232Z,28.10
2023-04-09T13:20:07.899Z,26.58
2023-04-09T13:22:11.541Z,25.58
2023-04-09T13:24:14.921Z,24.95
2023-04-09T13:26:18.132Z,24.95
2023-04-09T13:28:22.852Z,22.92
2023-04-09T13:30:26.337Z,24.52
2023-04-09T13:32:29.659Z,23.55
2023-04-09T13:34:33.121Z,25.13
2023-04-09T13:36:36.409Z,25.70
2023-04-09T13:38:39.698Z,22.00
2023-04-09T13:40:43.201Z,20.90
2023-04-09T13:42:46.448Z,20.73
2023-04-09T13:44:51.395Z,19.73
2023-04-09T13:46:54.790Z,19.85
2023-04-09T13:48:58.149Z,20.45
2023-04-09T13:51:01.506Z,20.55
2023-04-09T13:53:05.377Z,22.40
2023-04-09T13:55:10.450Z,22.13
2023-04-09T13:57:13.766Z,21.27
2023-04-09T13:59:17.018Z,21.88
2023-04-09T14:01:21.808Z,20.77
2023-04-09T14:03:25.426Z,19.83
2023-04-09T14:05:28.774Z,21.90
2023-04-09T14:07:32.195Z,22.98
2023-04-09T14:09:35.546Z,22.98
2023-04-09T14:11:38.937Z,22.92
2023-04-09T14:13:42.360Z,22.13
2023-04-09T14:15:46.309Z,21.27
2023-04-09T14:17:51.091Z,21.35
2023-04-09T14:19:54.444Z,22.58
2023-04-09T14:21:57.916Z,20.70
2023-04-09T14:24:01.180Z,18.92
2023-04-09T14:26:05.394Z,19.27
2023-04-09T14:28:08.690Z,18.48
2023-04-09T14:30:14.019Z,16.98
2023-04-09T14:32:21.187Z,17.50
2023-04-09T14:34:27.383Z,17.00
2023-04-09T14:36:31.724Z,19.05
2023-04-09T14:38:35.575Z,18.55
2023-04-09T14:40:38.809Z,17.15
2023-04-09T14:42:42.628Z,17.73
2023-04-09T14:44:45.951Z,18.75
2023-04-09T14:46:49.188Z,17.55
2023-04-09T14:48:52.633Z,18.02
2023-04-09T14:50:57.581Z,16.67
2023-04-09T14:53:00.972Z,17.33
2023-04-09T14:55:04.350Z,17.42
2023-04-09T14:57:07.596Z,17.67
2023-04-09T14:59:12.054Z,16.92
2023-04-09T15:01:15.707Z,17.27
2023-04-09T15:03:19.168Z,38.97
2023-04-09T15:05:22.965Z,17.58
2023-04-09T15:07:27.785Z,16.95
2023-04-09T15:09:31.702Z,17.92
2023-04-09T15:11:34.987Z,18.83
2023-04-09T15:13:38.750Z,19.27
2023-04-09T15:15:44.248Z,19.08
2023-04-09T15:17:47.975Z,19.85
2023-04-09T15:19:51.731Z,18.27
2023-04-09T15:21:54.957Z,18.85
2023-04-09T15:24:00.489Z,18.88
2023-04-09T15:26:03.961Z,18.92
2023-04-09T15:28:07.685Z,18.70
2023-04-09T15:30:11.126Z,18.38
2023-04-09T15:32:14.550Z,20.27
2023-04-09T15:34:17.775Z,18.90
2023-04-09T15:36:21.106Z,19.50
2023-04-09T15:38:25.237Z,19.52
2023-04-09T15:40:31.147Z,19.20
2023-04-09T15:42:34.461Z,18.75
2023-04-09T15:44:39.071Z,19.17
2023-04-09T15:46:42.274Z,18.27
2023-04-09T15:48:45.988Z,19.38
2023-04-09T15:50:49.313Z,19.38
2023-04-09T15:52:52.621Z,19.83
2023-04-09T15:54:56.583Z,18.98
2023-04-09T15:57:02.093Z,18.17
2023-04-09T15:59:05.462Z,18.27
2023-04-09T16:01:09.329Z,19.30
2023-04-09T16:03:12.732Z,18.42
2023-04-09T16:05:16.162Z,17.17
2023-04-09T16:07:19.707Z,17.77
2023-04-09T16:09:23.162Z,18.42
2023-04-09T16:11:26.663Z,17.33
2023-04-09T16:13:32.057Z,17.45
2023-04-09T16:15:36.054Z,18.13
2023-04-09T16:17:41.082Z,18.58
2023-04-09T16:19:44.746Z,18.75
2023-04-09T16:21:49.382Z,18.33
2023-04-09T16:23:52.586Z,15.27
2023-04-09T16:25:56.040Z,16.77
2023-04-09T16:27:59.321Z,16.73
2023-04-09T16:30:04.063Z,16.40
2023-04-09T16:32:07.445Z,16.77
2023-04-09T16:34:10.931Z,17.05
2023-04-09T16:36:14.401Z,17.05
2023-04-09T16:38:17.840Z,17.05
2023-04-09T16:40:24.337Z,18.67
2023-04-09T16:42:28.223Z,18.45
2023-04-09T16:44:34.021Z,18.38
2023-04-09T16:46:38.893Z,18.70
2023-04-09T16:48:42.192Z,19.15
2023-04-09T16:50:45.457Z,19.38
2023-04-09T16:52:49.385Z,18.75
2023-04-09T16:54:52.697Z,19.40
2023-04-09T16:56:57.286Z,19.00
2023-04-09T16:59:00.722Z,19.73
2023-04-09T17:01:04.080Z,19.45
2023-04-09T17:03:08.819Z,20.40
2023-04-09T17:05:12.421Z,20.27
2023-04-09T17:07:16.482Z,20.35
2023-04-09T17:09:19.967Z,20.30
2023-04-09T17:11:23.709Z,20.08
2023-04-09T17:13:27.397Z,21.83
2023-04-09T17:15:30.766Z,22.48
2023-04-09T17:17:34.842Z,21.98
2023-04-09T17:19:41.205Z,22.65
2023-04-09T17:21:46.064Z,21.10
2023-04-09T17:23:49.336Z,23.00
2023-04-09T17:25:53.228Z,22.83
2023-04-09T17:27:56.704Z,22.77
2023-04-09T17:29:59.953Z,22.77
2023-04-09T17:32:04.695Z,23.67
2023-04-09T17:34:08.645Z,23.17
2023-04-09T17:36:15.126Z,23.55
2023-04-09T17:38:21.407Z,24.17
2023-04-09T17:40:24.869Z,23.75
2023-04-09T17:42:29.470Z,24.08
2023-04-09T17:44:35.429Z,23.92
2023-04-09T17:46:39.250Z,24.08
2023-04-09T17:48:42.813Z,24.25
2023-04-09T17:50:46.783Z,24.75
2023-04-09T17:52:52.024Z,23.40
2023-04-09T17:54:55.518Z,23.83
2023-04-09T17:56:58.803Z,23.70
2023-04-09T17:59:02.192Z,23.48
2023-04-09T18:01:08.414Z,23.95
2023-04-09T18:03:12.934Z,25.23
2023-04-09T18:05:16.588Z,24.55
2023-04-09T18:07:20.357Z,25.25
2023-04-09T18:09:25.095Z,24.52
2023-04-09T18:11:28.379Z,24.90
2023-04-09T18:13:31.749Z,24.23
2023-04-09T18:15:35.312Z,28.25
2023-04-09T18:17:38.641Z,25.55
2023-04-09T18:19:41.979Z,26.75
2023-04-09T18:21:45.273Z,25.45
2023-04-09T18:23:48.577Z,25.70
2023-04-09T18:25:53.394Z,25.38
2023-04-09T18:27:56.761Z,25.80
2023-04-09T18:30:00.017Z,25.48
2023-04-09T18:32:03.276Z,25.90
2023-04-09T18:34:06.806Z,26.48
2023-04-09T18:36:10.411Z,26.60
2023-04-09T18:38:13.732Z,27.42
2023-04-09T18:40:18.646Z,26.73
2023-04-09T18:42:23.434Z,26.50
2023-04-09T18:44:27.729Z,26.75
2023-04-09T18:46:31.207Z,27.13
2023-04-09T18:48:34.660Z,27.52
2023-04-09T18:50:37.896Z,27.80
2023-04-09T18:52:41.269Z,27.83
2023-04-09T18:54:44.740Z,27.20
2023-04-09T18:56:48.008Z,29.67
2023-04-09T18:58:52.923Z,27.33
2023-04-09T19:00:56.987Z,27.88
2023-04-09T19:03:00.687Z,28.13
2023-04-09T19:05:07.232Z,28.23
2023-04-09T19:07:10.738Z,27.75
2023-04-09T19:09:14.039Z,29.05
2023-04-09T19:11:17.313Z,28.88
2023-04-09T19:13:26.193Z,28.30
2023-04-09T19:15:31.501Z,29.00
2023-04-09T19:17:35.803Z,28.58
2023-04-09T19:19:39.090Z,28.77
2023-04-09T19:21:42.430Z,28.73
2023-04-09T19:23:46.871Z,28.50
2023-04-09T19:25:52.464Z,28.05
2023-04-09T19:27:57.255Z,28.67
2023-04-09T19:30:01.188Z,29.48
2023-04-09T19:32:06.094Z,28.17
2023-04-09T19:34:10.855Z,29.10
2023-04-09T19:36:14.176Z,29.55
2023-04-09T19:38:17.913Z,28.25
2023-04-09T19:40:21.419Z,27.98
2023-04-09T19:42:24.760Z,29.88
2023-04-09T19:44:28.130Z,28.20
2023-04-09T19:46:31.505Z,29.48
2023-04-09T19:48:36.463Z,28.42
2023-04-09T19:50:40.943Z,29.25
2023-04-09T19:52:44.285Z,29.15
2023-04-09T19:54:47.670Z,29.13
2023-04-09T19:56:50.939Z,28.77
2023-04-09T19:58:54.719Z,29.13
2023-04-09T20:00:58.269Z,29.27
2023-04-09T20:03:02.582Z,28.63
2023-04-09T20:05:08.581Z,27.90
2023-04-09T20:07:11.896Z,29.65
2023-04-09T20:09:17.200Z,29.60
2023-04-09T20:11:20.503Z,30.00
2023-04-09T20:13:23.789Z,28.55
2023-04-09T20:15:27.229Z,29.13
2023-04-09T20:17:30.672Z,30.60
2023-04-09T20:19:34.117Z,29.67
2023-04-09T20:21:38.892Z,28.73
2023-04-09T20:23:42.242Z,28.48
2023-04-09T20:25:45.708Z,29.10
2023-04-09T20:27:49.261Z,29.00
2023-04-09T20:29:52.973Z,28.55
2023-04-09T20:31:56.633Z,29.02
2023-04-09T20:33:59.992Z,28.58
2023-04-09T20:36:03.462Z,27.95
2023-04-09T20:38:08.213Z,28.73
2023-04-09T20:40:13.023Z,28.00
2023-04-09T20:42:17.104Z,28.33
2023-04-09T20:44:20.594Z,27.30
2023-04-09T20:46:24.947Z,28.35
2023-04-09T20:48:31.440Z,28.08
2023-04-09T20:50:34.889Z,28.60
2023-04-09T20:52:38.404Z,27.60
2023-04-09T20:54:43.418Z,27.75
2023-04-09T20:56:46.724Z,27.00
2023-04-09T20:58:50.151Z,28.50
2023-04-09T21:00:54.503Z,27.88
2023-04-09T21:02:57.992Z,28.42
2023-04-09T21:05:08.544Z,28.52
2023-04-09T21:07:22.742Z,28.95
2023-04-09T21:09:26.262Z,28.13
2023-04-09T21:11:31.293Z,28.35
2023-04-09T21:13:46.852Z,29.55
2023-04-09T21:15:58.652Z,28.15
2023-04-09T21:18:02.008Z,28.15
2023-04-09T21:20:05.734Z,28.85
2023-04-09T21:22:09.211Z,29.20
2023-04-09T21:24:12.427Z,28.73
2023-04-09T21:26:15.731Z,28.05
2023-04-09T21:28:20.380Z,28.48
2023-04-09T21:30:23.710Z,30.88
2023-04-09T21:32:27.167Z,27.70
2023-04-09T21:34:31.512Z,28.05
2023-04-09T21:36:37.633Z,28.70
2023-04-09T21:38:41.039Z,28.52
2023-04-09T21:40:44.630Z,28.83
2023-04-09T21:42:47.888Z,27.85
2023-04-09T21:44:52.631Z,29.42
2023-04-09T21:46:56.080Z,29.30
2023-04-09T21:48:59.397Z,28.50
2023-04-09T21:51:02.687Z,28.27
2023-04-09T21:53:06.239Z,27.67
2023-04-09T21:55:10.286Z,28.88
2023-04-09T21:57:13.676Z,29.38
2023-04-09T21:59:16.897Z,28.08
2023-04-09T22:01:29.137Z,30.58
2023-04-09T22:03:33.260Z,29.90
2023-04-09T22:05:36.780Z,31.42
2023-04-09T22:07:40.623Z,31.27
2023-04-09T22:09:44.132Z,30.17
2023-04-09T22:11:47.560Z,30.98
2023-04-09T22:13:50.802Z,31.15
2023-04-09T22:15:54.030Z,30.65
2023-04-09T22:17:58.809Z,30.23
2023-04-09T22:20:02.109Z,29.95
2023-04-09T22:22:05.501Z,32.20
2023-04-09T22:24:08.914Z,30.27
2023-04-09T22:26:12.368Z,31.42
2023-04-09T22:28:15.834Z,32.22
2023-04-09T22:30:20.788Z,31.20
2023-04-09T22:32:24.324Z,30.90
2023-04-09T22:34:29.301Z,30.85
2023-04-09T22:36:32.763Z,30.52
2023-04-09T22:38:36.211Z,28.75
2023-04-09T22:40:39.603Z,29.38
2023-04-09T22:42:43.511Z,28.27
2023-04-09T22:44:46.799Z,27.42
2023-04-09T22:46:50.139Z,27.90
2023-04-09T22:48:53.768Z,27.38
2023-04-09T22:50:59.518Z,28.60
2023-04-09T22:53:03.233Z,27.98
2023-04-09T22:55:10.028Z,28.15
2023-04-09T22:57:13.494Z,29.17
2023-04-09T22:59:21.332Z,27.15
2023-04-09T23:01:26.473Z,28.65
2023-04-09T23:03:30.419Z,27.88
2023-04-09T23:05:35.424Z,29.02
2023-04-09T23:07:40.338Z,28.33
2023-04-09T23:09:43.603Z,28.23
2023-04-09T23:11:46.838Z,28.05
2023-04-09T23:13:50.086Z,29.33
2023-04-09T23:15:53.372Z,28.98
2023-04-09T23:17:56.831Z,28.77
2023-04-09T23:20:00.733Z,29.67
2023-04-09T23:22:03.984Z,29.85
2023-04-09T23:24:08.668Z,28.63
2023-04-09T23:26:12.003Z,27.70
2023-04-09T23:28:15.653Z,29.63
2023-04-09T23:30:20.427Z,29.00
2023-04-09T23:32:23.778Z,30.08
2023-04-09T23:34:27.073Z,29.17
2023-04-09T23:36:30.997Z,29.83
2023-04-09T23:38:34.341Z,30.30
2023-04-09T23:40:38.977Z,30.80
2023-04-09T23:42:42.186Z,30.83
2023-04-09T23:44:45.519Z,30.83
2023-04-09T23:46:48.781Z,32.22
2023-04-09T23:48:52.104Z,31.10
2023-04-09T23:50:55.378Z,31.75
2023-04-09T23:53:00.959Z,33.13
2023-04-09T23:55:04.394Z,34.47
2023-04-09T23:57:09.077Z,33.72
2023-04-09T23:59:12.337Z,36.28
